createdAt,value
2022-12-16T00:01:27.699Z,-0.70
2022-12-16T00:03:56.267Z,-0.70
2022-12-16T00:06:25.590Z,-0.70
2022-12-16T00:08:52.395Z,-0.70
2022-12-16T00:11:20.553Z,-0.70
2022-12-16T00:13:47.990Z,-0.70
2022-12-16T00:16:16.943Z,-0.70
2022-12-16T00:18:44.110Z,-0.70
2022-12-16T00:21:11.356Z,-0.70
2022-12-16T00:23:44.527Z,-0.70
2022-12-16T00:26:12.115Z,-0.70
2022-12-16T00:28:39.917Z,-0.70
2022-12-16T00:31:06.868Z,-0.70
2022-12-16T00:33:34.252Z,-0.60
2022-12-16T00:36:01.326Z,-0.60
2022-12-16T00:38:28.073Z,-0.60
2022-12-16T00:40:54.959Z,-0.60
2022-12-16T00:43:21.806Z,-0.60
2022-12-16T00:45:49.061Z,-0.60
2022-12-16T00:48:16.378Z,-0.60
2022-12-16T00:50:49.540Z,-0.60
2022-12-16T00:53:19.670Z,-0.60
2022-12-16T00:55:46.563Z,-0.60
2022-12-16T00:58:13.714Z,-0.60
2022-12-16T01:00:40.621Z,-0.60
2022-12-16T01:03:07.568Z,-0.60
2022-12-16T01:05:34.362Z,-0.60
2022-12-16T01:08:01.051Z,-0.70
2022-12-16T01:10:27.899Z,-0.60
2022-12-16T01:12:54.635Z,-0.60
2022-12-16T01:15:22.054Z,-0.60
2022-12-16T01:17:48.795Z,-0.60
2022-12-16T01:20:15.842Z,-0.60
2022-12-16T01:22:42.593Z,-0.60
2022-12-16T01:25:12.908Z,-0.60
2022-12-16T01:27:39.765Z,-0.60
2022-12-16T01:30:07.443Z,-0.60
2022-12-16T01:32:34.265Z,-0.60
2022-12-16T01:35:01.003Z,-0.60
2022-12-16T01:37:27.692Z,-0.60
2022-12-16T01:39:54.418Z,-0.60
2022-12-16T01:42:22.712Z,-0.60
2022-12-16T01:44:52.131Z,-0.60
2022-12-16T01:47:31.103Z,-0.60
2022-12-16T01:50:11.382Z,-0.50
2022-12-16T01:52:42.254Z,-0.50
2022-12-16T01:55:13.095Z,-0.50
2022-12-16T01:57:42.676Z,-0.50
2022-12-16T02:00:10.483Z,-0.50
2022-12-16T02:02:37.266Z,-0.50
2022-12-16T02:05:22.907Z,-0.50
2022-12-16T02:08:18.589Z,-0.40
2022-12-16T02:10:45.314Z,-0.40
2022-12-16T02:13:23.531Z,-0.40
2022-12-16T02:16:29.756Z,-0.40
2022-12-16T02:19:14.892Z,-0.40
2022-12-16T02:22:12.974Z,-0.40
2022-12-16T02:25:16.363Z,-0.40
2022-12-16T02:27:50.190Z,-0.50
2022-12-16T02:30:23.198Z,-0.50
2022-12-16T02:33:10.070Z,-0.50
2022-12-16T02:35:46.384Z,-0.50
2022-12-16T02:38:39.677Z,-0.50
2022-12-16T02:41:22.001Z,-0.50
2022-12-16T02:43:56.640Z,-0.50
2022-12-16T02:46:28.607Z,-0.50
2022-12-16T02:48:55.596Z,-0.50
2022-12-16T02:51:25.196Z,-0.50
2022-12-16T02:53:53.023Z,-0.50
2022-12-16T02:56:35.418Z,-0.50
2022-12-16T02:59:05.119Z,-0.50
2022-12-16T03:01:47.111Z,-0.50
2022-12-16T03:04:20.636Z,-0.50
2022-12-16T03:06:50.733Z,-0.50
2022-12-16T03:09:21.318Z,-0.50
2022-12-16T03:11:49.684Z,-0.50
2022-12-16T03:14:18.663Z,-0.60
2022-12-16T03:16:46.859Z,-0.60
2022-12-16T03:19:14.446Z,-0.60
2022-12-16T03:22:00.512Z,-0.60
2022-12-16T03:24:27.928Z,-0.60
2022-12-16T03:27:09.535Z,-0.60
2022-12-16T03:30:10.727Z,-0.60
2022-12-16T03:32:48.606Z,-0.60
2022-12-16T03:35:30.654Z,-0.60
2022-12-16T03:37:58.307Z,-0.60
2022-12-16T03:40:27.064Z,-0.70
2022-12-16T03:42:54.114Z,-0.70
2022-12-16T03:45:25.002Z,-0.70
2022-12-16T03:47:52.765Z,-0.70
2022-12-16T03:50:22.591Z,-0.70
2022-12-16T03:52:49.492Z,-0.70
2022-12-16T03:55:16.259Z,-0.70
2022-12-16T03:57:43.002Z,-0.70
2022-12-16T04:00:10.424Z,-0.70
2022-12-16T04:02:37.420Z,-0.60
2022-12-16T04:05:04.447Z,-0.60
2022-12-16T04:07:32.168Z,-0.70
2022-12-16T04:09:58.921Z,-0.70
2022-12-16T04:12:44.273Z,-0.70
2022-12-16T04:15:30.089Z,-0.70
2022-12-16T04:18:15.409Z,-0.80
2022-12-16T04:21:06.327Z,-0.90
2022-12-16T04:23:52.850Z,-0.90
2022-12-16T04:26:20.178Z,-1.00
2022-12-16T04:28:46.932Z,-1.00
2022-12-16T04:31:13.796Z,-1.00
2022-12-16T04:33:59.738Z,-1.00
2022-12-16T04:36:44.957Z,-1.00
2022-12-16T04:39:30.364Z,-1.00
2022-12-16T04:42:15.761Z,-1.00
2022-12-16T04:45:01.204Z,-1.00
2022-12-16T04:47:46.513Z,-0.90
2022-12-16T04:50:31.864Z,-0.90
2022-12-16T04:53:17.204Z,-0.90
2022-12-16T04:56:04.720Z,-0.80
2022-12-16T04:58:50.271Z,-0.70
2022-12-16T05:01:35.537Z,-0.70
2022-12-16T05:04:21.028Z,-0.60
2022-12-16T05:07:06.307Z,-0.60
2022-12-16T05:09:51.765Z,-0.60
2022-12-16T05:12:36.945Z,-0.60
2022-12-16T05:15:22.326Z,-0.50
2022-12-16T05:18:07.572Z,-0.50
2022-12-16T05:20:52.847Z,-0.60
2022-12-16T05:23:38.271Z,-0.60
2022-12-16T05:26:23.587Z,-0.60
2022-12-16T05:29:08.860Z,-0.60
2022-12-16T05:31:54.138Z,-0.60
2022-12-16T05:34:39.608Z,-0.60
2022-12-16T05:37:25.469Z,-0.60
2022-12-16T05:40:10.726Z,-0.60
2022-12-16T05:42:56.123Z,-0.60
2022-12-16T05:45:41.511Z,-0.60
2022-12-16T05:48:26.980Z,-0.60
2022-12-16T05:51:12.244Z,-0.60
2022-12-16T05:53:57.534Z,-0.60
2022-12-16T05:56:43.002Z,-0.50
2022-12-16T05:59:28.302Z,-0.40
2022-12-16T06:02:13.790Z,-0.40
2022-12-16T06:04:59.111Z,-0.30
2022-12-16T06:07:44.526Z,-0.40
2022-12-16T06:10:29.566Z,-0.40
2022-12-16T06:13:14.895Z,-0.40
2022-12-16T06:16:05.149Z,-0.40
2022-12-16T06:18:53.803Z,-0.30
2022-12-16T06:21:38.954Z,-0.30
2022-12-16T06:24:24.762Z,-0.30
2022-12-16T06:27:10.024Z,-0.20
2022-12-16T06:29:55.357Z,-0.20
2022-12-16T06:32:40.687Z,-0.20
2022-12-16T06:35:26.559Z,-0.20
2022-12-16T06:38:11.972Z,-0.20
2022-12-16T06:40:57.245Z,-0.30
2022-12-16T06:43:42.628Z,-0.30
2022-12-16T06:46:28.258Z,-0.40
2022-12-16T06:49:13.555Z,-0.40
2022-12-16T06:51:58.732Z,-0.30
2022-12-16T06:54:57.773Z,-0.30
2022-12-16T06:57:43.190Z,-0.30
2022-12-16T07:00:29.003Z,-0.30
2022-12-16T07:03:14.367Z,-0.30
2022-12-16T07:05:59.655Z,-0.30
2022-12-16T07:08:45.050Z,-0.20
2022-12-16T07:11:30.585Z,-0.20
2022-12-16T07:14:15.832Z,-0.20
2022-12-16T07:17:01.074Z,-0.20
2022-12-16T07:19:46.514Z,-0.20
2022-12-16T07:22:31.777Z,-0.20
2022-12-16T07:25:17.131Z,-0.20
2022-12-16T07:28:08.314Z,-0.20
2022-12-16T07:30:57.612Z,-0.10
2022-12-16T07:33:42.968Z,-0.10
2022-12-16T07:36:28.196Z,-0.10
2022-12-16T07:39:13.432Z,-0.10
2022-12-16T07:41:58.700Z,-0.10
2022-12-16T07:44:44.036Z,-0.10
2022-12-16T07:47:29.482Z,-0.10
2022-12-16T07:50:14.804Z,-0.10
2022-12-16T07:52:59.999Z,-0.10
2022-12-16T07:55:45.320Z,-0.10
2022-12-16T07:58:30.646Z,0.00
2022-12-16T08:01:16.057Z,0.00
2022-12-16T08:04:01.474Z,0.00
2022-12-16T08:06:46.822Z,0.00
2022-12-16T08:09:32.270Z,0.10
2022-12-16T08:12:17.518Z,0.10
2022-12-16T08:15:02.909Z,0.10
2022-12-16T08:17:48.168Z,0.10
2022-12-16T08:20:33.629Z,0.20
2022-12-16T08:23:18.911Z,0.20
2022-12-16T08:26:04.190Z,0.30
2022-12-16T08:28:49.699Z,0.30
2022-12-16T08:31:35.014Z,0.30
2022-12-16T08:34:20.396Z,0.40
2022-12-16T08:37:05.805Z,0.40
2022-12-16T08:40:10.702Z,0.50
2022-12-16T08:42:56.446Z,0.50
2022-12-16T08:45:42.342Z,0.60
2022-12-16T08:48:27.714Z,0.60
2022-12-16T08:51:13.080Z,0.70
2022-12-16T08:53:58.425Z,0.70
2022-12-16T08:56:43.711Z,0.70
2022-12-16T08:59:28.937Z,0.70
2022-12-16T09:02:14.324Z,0.70
2022-12-16T09:04:59.889Z,0.70
2022-12-16T09:07:45.193Z,0.70
2022-12-16T09:10:36.034Z,0.80
2022-12-16T09:13:32.982Z,0.80
2022-12-16T09:16:19.937Z,0.90
2022-12-16T09:19:06.422Z,0.90
2022-12-16T09:21:52.232Z,1.00
2022-12-16T09:24:40.009Z,1.00
2022-12-16T09:27:25.487Z,1.10
2022-12-16T09:30:10.809Z,1.10
2022-12-16T09:33:01.120Z,1.20
2022-12-16T09:35:46.393Z,1.30
2022-12-16T09:38:32.322Z,1.30
2022-12-16T09:41:45.034Z,1.40
2022-12-16T09:44:52.946Z,1.40
2022-12-16T09:47:53.124Z,1.50
2022-12-16T09:50:45.896Z,1.60
2022-12-16T09:53:34.521Z,1.70
2022-12-16T09:56:23.744Z,1.80
2022-12-16T09:59:16.729Z,1.80
2022-12-16T10:02:02.726Z,1.80
2022-12-16T10:05:05.465Z,1.80
2022-12-16T10:07:51.456Z,1.80
2022-12-16T10:10:54.733Z,1.80
2022-12-16T10:13:40.988Z,1.80
2022-12-16T10:16:38.436Z,1.80
2022-12-16T10:19:32.629Z,1.90
2022-12-16T10:22:49.387Z,1.90
2022-12-16T10:25:42.226Z,1.80
2022-12-16T10:28:41.555Z,1.70
2022-12-16T10:31:35.687Z,1.70
2022-12-16T10:34:21.710Z,1.60
2022-12-16T10:37:12.367Z,1.60
2022-12-16T10:40:03.171Z,1.50
2022-12-16T10:42:50.277Z,1.50
2022-12-16T10:45:44.667Z,1.50
2022-12-16T10:48:30.017Z,1.50
2022-12-16T10:51:18.403Z,1.50
2022-12-16T10:54:07.835Z,1.50
2022-12-16T10:57:03.258Z,1.50
2022-12-16T10:59:55.937Z,1.50
2022-12-16T11:02:43.729Z,1.50
2022-12-16T11:05:44.573Z,1.50
2022-12-16T11:08:47.537Z,1.40
2022-12-16T11:11:39.593Z,1.40
2022-12-16T11:15:12.578Z,1.40
2022-12-16T11:17:55.940Z,1.40
2022-12-16T11:20:44.010Z,1.40
2022-12-16T11:23:39.450Z,1.40
2022-12-16T11:26:37.472Z,1.50
2022-12-16T11:29:39.453Z,1.50
2022-12-16T11:32:30.987Z,1.50
2022-12-16T11:35:18.262Z,1.50
2022-12-16T11:38:04.444Z,1.50
2022-12-16T11:40:50.411Z,1.60
2022-12-16T11:43:38.052Z,1.60
2022-12-16T11:46:32.626Z,1.60
2022-12-16T11:49:25.214Z,1.60
2022-12-16T11:52:36.370Z,1.60
2022-12-16T11:59:01.260Z,1.60
2022-12-16T12:01:57.368Z,1.60
2022-12-16T12:04:42.835Z,1.60
2022-12-16T12:08:16.345Z,1.60
2022-12-16T12:11:29.602Z,1.60
2022-12-16T12:14:46.015Z,1.60
2022-12-16T12:17:40.116Z,1.60
2022-12-16T12:20:28.433Z,1.60
2022-12-16T12:23:20.074Z,1.60
2022-12-16T12:26:18.526Z,1.60
2022-12-16T12:29:30.063Z,1.60
2022-12-16T12:32:25.540Z,1.60
2022-12-16T12:35:49.160Z,1.60
2022-12-16T12:38:37.844Z,1.70
2022-12-16T12:41:35.089Z,1.70
2022-12-16T12:44:51.234Z,1.70
2022-12-16T12:47:37.387Z,1.70
2022-12-16T12:50:34.954Z,1.70
2022-12-16T12:53:42.347Z,1.60
2022-12-16T12:56:57.060Z,1.60
2022-12-16T12:59:48.190Z,1.60
2022-12-16T13:02:43.225Z,1.50
2022-12-16T13:05:32.951Z,1.40
2022-12-16T13:08:56.517Z,1.40
2022-12-16T13:11:42.787Z,1.40
2022-12-16T13:15:09.676Z,1.30
2022-12-16T13:18:31.064Z,1.20
2022-12-16T13:21:17.244Z,1.20
2022-12-16T13:24:03.641Z,1.10
2022-12-16T13:26:51.505Z,1.20
2022-12-16T13:29:43.969Z,1.20
2022-12-16T13:32:44.546Z,1.20
2022-12-16T13:35:29.500Z,1.20
2022-12-16T13:38:21.022Z,1.20
2022-12-16T13:41:21.251Z,1.20
2022-12-16T13:44:11.353Z,1.20
2022-12-16T13:47:07.742Z,1.20
2022-12-16T13:49:56.284Z,1.20
2022-12-16T13:52:54.182Z,1.20
2022-12-16T13:55:50.763Z,1.20
2022-12-16T13:59:00.086Z,1.20
2022-12-16T14:01:53.940Z,1.20
2022-12-16T14:04:48.635Z,1.20
2022-12-16T14:07:36.228Z,1.10
2022-12-16T14:10:22.942Z,1.10
2022-12-16T14:13:21.679Z,1.10
2022-12-16T14:16:29.202Z,1.00
2022-12-16T14:19:40.205Z,1.00
2022-12-16T14:22:49.278Z,1.00
2022-12-16T14:25:39.813Z,0.90
2022-12-16T14:28:44.517Z,0.90
2022-12-16T14:31:50.827Z,0.80
2022-12-16T14:34:41.455Z,0.80
2022-12-16T14:37:56.745Z,0.70
2022-12-16T14:40:46.908Z,0.70
2022-12-16T14:43:43.547Z,0.60
2022-12-16T14:46:46.084Z,0.60
2022-12-16T14:49:42.910Z,0.50
2022-12-16T14:52:36.124Z,0.40
2022-12-16T14:55:31.638Z,0.30
2022-12-16T14:58:27.408Z,0.30
2022-12-16T15:01:16.082Z,0.20
2022-12-16T15:04:06.644Z,0.10
2022-12-16T15:06:55.642Z,0.10
2022-12-16T15:10:03.086Z,0.00
2022-12-16T15:12:52.368Z,-0.10
2022-12-16T15:15:52.892Z,-0.20
2022-12-16T15:18:43.943Z,-0.20
2022-12-16T15:21:29.171Z,-0.30
2022-12-16T15:24:14.441Z,-0.30
2022-12-16T15:26:59.950Z,-0.40
2022-12-16T15:29:59.875Z,-0.40
2022-12-16T15:32:50.067Z,-0.50
2022-12-16T15:35:44.562Z,-0.60
2022-12-16T15:38:48.078Z,-0.60
2022-12-16T15:41:38.670Z,-0.70
2022-12-16T15:44:24.459Z,-0.80
2022-12-16T15:47:09.809Z,-0.80
2022-12-16T15:50:03.512Z,-0.90
2022-12-16T15:52:56.937Z,-1.00
2022-12-16T15:55:53.293Z,-1.10
2022-12-16T15:58:38.426Z,-1.20
2022-12-16T16:01:24.578Z,-1.30
2022-12-16T16:04:12.065Z,-1.30
2022-12-16T16:06:59.912Z,-1.40
2022-12-16T16:09:48.305Z,-1.50
2022-12-16T16:12:36.818Z,-1.50
2022-12-16T16:15:23.396Z,-1.60
2022-12-16T16:18:13.347Z,-1.70
2022-12-16T16:20:58.903Z,-1.80
2022-12-16T16:23:44.243Z,-1.90
2022-12-16T16:26:31.752Z,-2.00
2022-12-16T16:29:17.358Z,-2.00
2022-12-16T16:32:04.358Z,-2.10
2022-12-16T16:34:50.325Z,-2.10
2022-12-16T16:37:37.820Z,-2.10
2022-12-16T16:40:36.284Z,-2.30
2022-12-16T16:43:21.607Z,-2.30
2022-12-16T16:46:12.968Z,-2.30
2022-12-16T16:48:59.374Z,-2.40
2022-12-16T16:51:45.936Z,-2.40
2022-12-16T16:54:31.397Z,-2.50
2022-12-16T16:57:19.640Z,-2.50
2022-12-16T17:00:05.064Z,-2.60
2022-12-16T17:02:50.801Z,-2.60
2022-12-16T17:05:36.241Z,-2.60
2022-12-16T17:08:21.642Z,-2.50
2022-12-16T17:11:06.908Z,-2.50
2022-12-16T17:13:52.356Z,-2.50
2022-12-16T17:16:37.935Z,-2.50
2022-12-16T17:19:23.456Z,-2.50
2022-12-16T17:22:08.821Z,-2.50
2022-12-16T17:24:54.758Z,-2.50
2022-12-16T17:27:43.246Z,-2.50
2022-12-16T17:30:40.701Z,-2.60
2022-12-16T17:33:28.808Z,-2.60
2022-12-16T17:36:14.502Z,-2.70
2022-12-16T17:39:01.864Z,-2.80
2022-12-16T17:41:51.737Z,-2.80
2022-12-16T17:44:37.684Z,-2.80
2022-12-16T17:47:23.005Z,-2.90
2022-12-16T17:50:08.404Z,-3.00
2022-12-16T17:52:53.895Z,-3.10
2022-12-16T17:55:39.186Z,-3.10
2022-12-16T17:58:24.516Z,-3.20
2022-12-16T18:01:10.034Z,-3.30
2022-12-16T18:03:55.610Z,-3.40
2022-12-16T18:06:41.571Z,-3.50
2022-12-16T18:09:26.851Z,-3.60
2022-12-16T18:12:12.757Z,-3.60
2022-12-16T18:14:58.166Z,-3.70
2022-12-16T18:17:43.601Z,-3.80
2022-12-16T18:20:28.944Z,-3.80
2022-12-16T18:23:14.346Z,-3.80
2022-12-16T18:25:59.708Z,-3.90
2022-12-16T18:28:45.087Z,-3.90
2022-12-16T18:31:30.573Z,-4.00
2022-12-16T18:34:15.999Z,-4.10
2022-12-16T18:37:01.254Z,-4.30
2022-12-16T18:39:50.324Z,-4.30
2022-12-16T18:42:35.630Z,-4.40
2022-12-16T18:45:20.582Z,-4.40
2022-12-16T18:48:05.663Z,-4.50
2022-12-16T18:50:50.670Z,-4.50
2022-12-16T18:53:37.382Z,-4.60
2022-12-16T18:56:25.854Z,-4.60
2022-12-16T18:59:11.494Z,-4.60
2022-12-16T19:01:57.466Z,-4.60
2022-12-16T19:04:43.282Z,-4.70
2022-12-16T19:07:31.730Z,-4.70
2022-12-16T19:10:19.015Z,-4.80
2022-12-16T19:13:04.419Z,-4.80
2022-12-16T19:15:49.552Z,-4.90
2022-12-16T19:18:34.898Z,-5.00
2022-12-16T19:21:20.167Z,-5.10
2022-12-16T19:24:07.255Z,-5.20
2022-12-16T19:26:53.250Z,-5.20
2022-12-16T19:29:42.877Z,-5.20
2022-12-16T19:32:28.540Z,-5.20
2022-12-16T19:35:14.000Z,-5.20
2022-12-16T19:41:11.194Z,-5.30
2022-12-16T19:44:03.483Z,-5.30
2022-12-16T19:46:51.595Z,-5.40
2022-12-16T19:49:40.775Z,-5.40
2022-12-16T19:52:29.442Z,-5.50
2022-12-16T19:58:20.336Z,-5.70
2022-12-16T20:01:06.205Z,-5.80
2022-12-16T20:07:00.938Z,-6.00
2022-12-16T20:09:46.464Z,-6.00
2022-12-16T20:12:32.052Z,-6.00
2022-12-16T20:15:17.916Z,-6.00
2022-12-16T20:18:13.987Z,-6.00
2022-12-16T20:21:00.318Z,-6.10
2022-12-16T20:23:45.994Z,-6.10
2022-12-16T20:26:31.826Z,-6.20
2022-12-16T20:29:17.259Z,-6.30
2022-12-16T20:32:22.796Z,-6.40
2022-12-16T20:35:07.985Z,-6.40
2022-12-16T20:37:54.482Z,-6.50
2022-12-16T20:40:41.590Z,-6.50
2022-12-16T20:43:32.475Z,-6.50
2022-12-16T20:46:17.886Z,-6.60
2022-12-16T20:49:05.269Z,-6.60
2022-12-16T20:51:50.886Z,-6.60
2022-12-16T20:54:37.328Z,-6.60
2022-12-16T20:57:22.740Z,-6.60
2022-12-16T21:00:08.281Z,-6.60
2022-12-16T21:02:54.890Z,-6.60
2022-12-16T21:05:43.030Z,-6.60
2022-12-16T21:08:28.340Z,-6.60
2022-12-16T21:11:16.729Z,-6.60
2022-12-16T21:14:02.089Z,-6.60
2022-12-16T21:16:47.356Z,-6.60
2022-12-16T21:19:33.786Z,-6.60
2022-12-16T21:22:19.783Z,-6.60
2022-12-16T21:25:05.303Z,-6.60
2022-12-16T21:27:50.573Z,-6.60
2022-12-16T21:30:37.970Z,-6.60
2022-12-16T21:33:23.376Z,-6.60
2022-12-16T21:36:12.787Z,-6.60
2022-12-16T21:38:58.193Z,-6.50
2022-12-16T21:41:43.686Z,-6.50
2022-12-16T21:44:28.971Z,-6.60
2022-12-16T21:47:14.527Z,-6.60
2022-12-16T21:50:02.966Z,-6.60
2022-12-16T21:52:48.412Z,-6.60
2022-12-16T21:55:33.821Z,-6.60
2022-12-16T21:58:19.149Z,-6.60
2022-12-16T22:01:11.915Z,-6.60
2022-12-16T22:03:57.271Z,-6.70
2022-12-16T22:06:48.242Z,-6.70
2022-12-16T22:09:33.890Z,-6.80
2022-12-16T22:12:19.306Z,-6.80
2022-12-16T22:15:04.726Z,-6.90
2022-12-16T22:17:57.535Z,-7.00
2022-12-16T22:20:43.614Z,-7.10
2022-12-16T22:23:28.910Z,-7.10
2022-12-16T22:26:18.379Z,-7.10
2022-12-16T22:29:03.682Z,-7.10
2022-12-16T22:31:49.143Z,-7.10
2022-12-16T22:34:34.580Z,-7.10
2022-12-16T22:37:19.931Z,-7.10
2022-12-16T22:40:05.396Z,-7.10
2022-12-16T22:42:50.646Z,-7.00
2022-12-16T22:45:37.512Z,-7.00
2022-12-16T22:48:23.064Z,-7.00
2022-12-16T22:51:12.904Z,-6.90
2022-12-16T22:53:58.263Z,-6.90
2022-12-16T22:56:43.696Z,-6.90
2022-12-16T22:59:28.948Z,-7.00
2022-12-16T23:02:14.356Z,-7.10
2022-12-16T23:05:00.006Z,-7.10
2022-12-16T23:07:45.499Z,-7.20
2022-12-16T23:10:30.877Z,-7.10
2022-12-16T23:13:16.176Z,-7.10
2022-12-16T23:16:01.767Z,-7.10
2022-12-16T23:18:47.101Z,-7.10
2022-12-16T23:21:34.052Z,-7.10
2022-12-16T23:24:20.043Z,-7.10
2022-12-16T23:27:05.470Z,-7.10
2022-12-16T23:29:50.741Z,-7.10
2022-12-16T23:32:37.334Z,-7.20
2022-12-16T23:35:23.248Z,-7.20
2022-12-16T23:38:08.609Z,-7.20
2022-12-16T23:40:54.496Z,-7.30
2022-12-16T23:43:42.871Z,-7.30
2022-12-16T23:46:28.700Z,-7.40
2022-12-16T23:49:14.087Z,-7.50
2022-12-16T23:51:59.508Z,-7.60
2022-12-16T23:54:44.786Z,-7.60
2022-12-16T23:57:30.119Z,-7.70
